Glendale, UT (84729)

7:30 PM MST on January 27, 2015 (GMT -0700)
RAWS KFO PORTABLE 3 UT US | Change Station
CLOSE
Current Station
Personal Weather Station
Location: Canyon Point, UT
Elevation: 5846 ft
Nearby Weather Stations

Elev 5846 ft 37.14 °N, 112.45 °W | Updated 59 minutes ago

Partly Cloudy
Partly Cloudy
41 °F
Feels Like 41 °F
N
0
Wind Variable Wind from North
Gusts 2.0 mph

Today
High -- | Low -- °F
--% Chance of Precip.
Yesterday
High -- | Low -- °F
Precip. -- in
7:37 AM 5:49 PM
First Quarter, 60% visible
Pressure 30.28 in
Visibility 10.0 miles
Clouds Clear
Windchill 41 °F
Dew Point 37 °F
Humidity 84%
Rainfall 0.11 in
Snow Depth Not available.
UV 0 out of 12
Pollen 4.20 out of 12
Air Quality Not available.
Flu Activity Not available.
METAR KAZC 280215Z AUTO 30004KT 10SM CLR 08/06 A3028 RMK AO2 T00770060

More Conditions Fewer Conditions

Pressure 30.28 in
Visibility 10.0 miles
Clouds Clear
Windchill 41 °F
Dew Point 37 °F
Humidity 84%
Rainfall 0.11 in
Snow Depth Not available.
UV 0 out of 12
Pollen 4.20 out of 12
Air Quality Not available.
Flu Activity Not available.
METAR KAZC 280215Z AUTO 30004KT 10SM CLR 08/06 A3028 RMK AO2 T00770060

More Conditions Fewer Conditions

10-Day Weather Forecast

Almanac

Astronomy

Jan. 27, 2015 Rise Set
Actual Time
Civil Twilight
Nautical Twilight
Astronomical Twilight
Moon
Length of Visible Light
Length of Day
Tomorrow will be .
, % of the Moon is Illuminated

Today's Extremes

State Highs State Lows

Community

WunderPhotos

Upload Photos

1,791,056 photos uploaded!

WunderBlogs® & News

Nearby

Air Quality

  Air Quality AQ Index Pollutant
Not available.

Snow Depth

Station Depth Elevation

Earthquake Activity

City Distance Mag. Time & Date
Minimum magnitude displayed is 2.5.

Coastal Water Temperatures

Place Temperature

Nearby Weather Stations